Terminal Aerodrome Forecast
Issued by NWS Shreveport, LA

Home | Current Version | Previous Version | Text Only | Print | Product List | Glossary On
Versions: 1 2 3 4 5 6 7 8 9 10 11 12 13 14 15 16 17 18 19 20 21 22
000
FTUS44 KSHV 300521
TAFGGG
TAF
KGGG 300521Z 3006/0106 27020G23KT P6SM -TSRA SCT010 BKN020CB
     FM300700 22012KT P6SM -TSRA BKN007 OVC020CB
      TEMPO 3007/3010 P6SM -SHRA OVC015
     FM301000 28009KT 5SM BR OVC030
      TEMPO 3010/3013 22010KT OVC020
     FM301400 25012G18KT P6SM OVC100
      TEMPO 3014/3017 25015G25KT=

USA.gov is the U.S. government's official web portal to all federal, state and local government web resources and services.